Snoqualmie River: Carnation station

back to: Snoqualmie river
Carnation station Summary - (NOAA Hydrograph: CRNW1)
flood stage: 54.0 ft
Latest reading:
Fri11/16 02:15 pm 46.36 ft 2178 cfs (+72/hr)
Past 24hr max:
Fri11/16 02:15 pm 46.36 ft 2178 cfs
Forecasted crests: (published Fri 11/16/18 03:04 pm)
Fri11/16 04:00 pm 46.39 ft 2235 cfs
Fri11/23 10:00 am 46.88 ft 3194 cfs
Sun11/25 10:00 am 47.28 ft 4106 cfs

Carnation station Details

Latest Readings

Last 100 Readings:
Fri11/16 02:15 pm 46.36 ft 2178 cfs
Fri11/16 02:00 pm 46.35 ft 2160 cfs
Fri11/16 01:45 pm 46.35 ft 2160 cfs
Fri11/16 01:30 pm 46.34 ft 2142 cfs
Fri11/16 01:15 pm 46.33 ft 2125 cfs
Fri11/16 01:00 pm 46.33 ft 2125 cfs
Fri11/16 12:45 pm 46.33 ft 2125 cfs
Fri11/16 12:30 pm 46.33 ft 2125 cfs
Fri11/16 12:15 pm 46.32 ft 2107 cfs
Fri11/16 12:00 pm 46.31 ft 2090 cfs
Fri11/16 11:45 am 46.31 ft 2090 cfs
Fri11/16 11:30 am 46.3 ft 2072 cfs
Fri11/16 11:15 am 46.3 ft 2072 cfs
Fri11/16 11:00 am 46.29 ft 2055 cfs
Fri11/16 10:45 am 46.29 ft 2055 cfs
Fri11/16 10:30 am 46.28 ft 2038 cfs
Fri11/16 10:15 am 46.27 ft 2020 cfs
Fri11/16 10:00 am 46.27 ft 2020 cfs
Fri11/16 09:45 am 46.26 ft 2003 cfs
Fri11/16 09:30 am 46.26 ft 2003 cfs
Fri11/16 09:15 am 46.25 ft 1986 cfs
Fri11/16 09:00 am 46.25 ft 1986 cfs
Fri11/16 08:45 am 46.24 ft 1969 cfs
Fri11/16 08:30 am 46.24 ft 1969 cfs
Fri11/16 08:15 am 46.24 ft 1969 cfs
Fri11/16 08:00 am 46.23 ft 1952 cfs
Fri11/16 07:45 am 46.23 ft 1952 cfs
Fri11/16 07:30 am 46.22 ft 1936 cfs
Fri11/16 07:15 am 46.22 ft 1936 cfs
Fri11/16 07:00 am 46.22 ft 1936 cfs
Fri11/16 06:45 am 46.22 ft 1936 cfs
Fri11/16 06:30 am 46.22 ft 1936 cfs
Fri11/16 06:15 am 46.21 ft 1919 cfs
Fri11/16 06:00 am 46.21 ft 1919 cfs
Fri11/16 05:45 am 46.21 ft 1919 cfs
Fri11/16 05:30 am 46.21 ft 1919 cfs
Fri11/16 05:15 am 46.21 ft 1919 cfs
Fri11/16 05:00 am 46.21 ft 1919 cfs
Fri11/16 04:45 am 46.21 ft 1919 cfs
Fri11/16 04:30 am 46.21 ft 1919 cfs
Fri11/16 04:15 am 46.21 ft 1919 cfs
Fri11/16 04:00 am 46.21 ft 1919 cfs
Fri11/16 03:45 am 46.21 ft 1919 cfs
Fri11/16 03:30 am 46.21 ft 1919 cfs
Fri11/16 03:15 am 46.2 ft 1902 cfs
Fri11/16 03:00 am 46.21 ft 1919 cfs
Fri11/16 02:45 am 46.19 ft 1885 cfs
Fri11/16 02:30 am 46.2 ft 1902 cfs
Fri11/16 02:15 am 46.21 ft 1919 cfs
Fri11/16 02:00 am 46.2 ft 1902 cfs
Fri11/16 01:45 am 46.21 ft 1919 cfs
Fri11/16 01:30 am 46.19 ft 1885 cfs
Fri11/16 01:15 am 46.21 ft 1919 cfs
Fri11/16 01:00 am 46.2 ft 1902 cfs
Fri11/16 12:45 am 46.2 ft 1902 cfs
Fri11/16 12:30 am 46.2 ft 1902 cfs
Fri11/16 12:15 am 46.2 ft 1902 cfs
Fri11/16 12:00 am 46.21 ft 1919 cfs
Thu11/15 11:45 pm 46.21 ft 1919 cfs
Thu11/15 11:30 pm 46.21 ft 1919 cfs
Thu11/15 11:15 pm 46.21 ft 1919 cfs
Thu11/15 11:00 pm 46.22 ft 1936 cfs
Thu11/15 10:45 pm 46.21 ft 1919 cfs
Thu11/15 10:30 pm 46.21 ft 1919 cfs
Thu11/15 10:15 pm 46.22 ft 1936 cfs
Thu11/15 10:00 pm 46.22 ft 1936 cfs
Thu11/15 09:45 pm 46.22 ft 1936 cfs
Thu11/15 09:30 pm 46.22 ft 1936 cfs
Thu11/15 09:15 pm 46.22 ft 1936 cfs
Thu11/15 09:00 pm 46.23 ft 1952 cfs
Thu11/15 08:45 pm 46.22 ft 1936 cfs
Thu11/15 08:30 pm 46.22 ft 1936 cfs
Thu11/15 08:15 pm 46.22 ft 1936 cfs
Thu11/15 08:00 pm 46.23 ft 1952 cfs
Thu11/15 07:45 pm 46.23 ft 1952 cfs
Thu11/15 07:30 pm 46.23 ft 1952 cfs
Thu11/15 07:15 pm 46.23 ft 1952 cfs
Thu11/15 07:00 pm 46.23 ft 1952 cfs
Thu11/15 06:45 pm 46.23 ft 1952 cfs
Thu11/15 06:30 pm 46.23 ft 1952 cfs
Thu11/15 06:15 pm 46.23 ft 1952 cfs
Thu11/15 06:00 pm 46.24 ft 1969 cfs
Thu11/15 05:45 pm 46.24 ft 1969 cfs
Thu11/15 05:30 pm 46.23 ft 1952 cfs
Thu11/15 05:15 pm 46.24 ft 1969 cfs
Thu11/15 05:00 pm 46.23 ft 1952 cfs
Thu11/15 04:45 pm 46.24 ft 1969 cfs
Thu11/15 04:30 pm 46.24 ft 1969 cfs
Thu11/15 04:15 pm 46.24 ft 1969 cfs
Thu11/15 04:00 pm 46.24 ft 1969 cfs
Thu11/15 03:45 pm 46.24 ft 1969 cfs
Thu11/15 03:30 pm 46.24 ft 1969 cfs
Thu11/15 03:15 pm 46.24 ft 1969 cfs
Thu11/15 03:00 pm 46.24 ft 1969 cfs
Thu11/15 02:45 pm 46.24 ft 1969 cfs
Thu11/15 02:30 pm 46.24 ft 1969 cfs
Thu11/15 02:15 pm 46.24 ft 1969 cfs
Thu11/15 02:00 pm 46.24 ft 1969 cfs
Thu11/15 01:45 pm 46.24 ft 1969 cfs
Thu11/15 01:30 pm 46.24 ft 1969 cfs

Latest Forecasts

Currently Forecasted Readings:
Fri11/16 04:00 pm 46.39 ft 2235 cfs
Fri11/16 10:00 pm 46.34 ft 2147 cfs
Sat11/17 04:00 am 46.24 ft 1963 cfs
Sat11/17 10:00 am 46.15 ft 1816 cfs
Sat11/17 04:00 pm 46.08 ft 1699 cfs
Sat11/17 10:00 pm 46.02 ft 1606 cfs
Sun11/18 04:00 am 45.97 ft 1539 cfs
Sun11/18 10:00 am 45.94 ft 1497 cfs
Sun11/18 04:00 pm 45.92 ft 1460 cfs
Sun11/18 10:00 pm 45.9 ft 1434 cfs
Mon11/19 04:00 am 45.88 ft 1414 cfs
Mon11/19 10:00 am 45.87 ft 1397 cfs
Mon11/19 04:00 pm 45.86 ft 1383 cfs
Mon11/19 10:00 pm 45.85 ft 1372 cfs
Tue11/20 04:00 am 45.84 ft 1364 cfs
Tue11/20 10:00 am 45.84 ft 1358 cfs
Tue11/20 04:00 pm 45.84 ft 1355 cfs
Tue11/20 10:00 pm 45.83 ft 1352 cfs
Wed11/21 04:00 am 45.83 ft 1351 cfs
Wed11/21 10:00 am 45.85 ft 1374 cfs
Wed11/21 04:00 pm 45.91 ft 1455 cfs
Wed11/21 10:00 pm 45.99 ft 1563 cfs
Thu11/22 04:00 am 46.07 ft 1692 cfs
Thu11/22 10:00 am 46.12 ft 1776 cfs
Thu11/22 04:00 pm 46.23 ft 1959 cfs
Thu11/22 10:00 pm 46.51 ft 2443 cfs
Fri11/23 04:00 am 46.78 ft 2985 cfs
Fri11/23 10:00 am 46.88 ft 3194 cfs
Fri11/23 04:00 pm 46.87 ft 3168 cfs
Fri11/23 10:00 pm 46.91 ft 3271 cfs
Sat11/24 04:00 am 46.96 ft 3378 cfs
Sat11/24 10:00 am 46.99 ft 3435 cfs
Sat11/24 04:00 pm 47.07 ft 3619 cfs
Sat11/24 10:00 pm 47.15 ft 3789 cfs
Sun11/25 04:00 am 47.22 ft 3967 cfs
Sun11/25 10:00 am 47.28 ft 4106 cfs
Sun11/25 04:00 pm 47.26 ft 4045 cfs
Sun11/25 10:00 pm 47.15 ft 3796 cfs
Mon11/26 04:00 am 47.02 ft 3495 cfs

Snoqualmie River flood gauge data supplied by the
National Weather Service Northwest River Forecast Center.

Sign up for Floodzilla alerts.